Terminal Aerodrome Forecast
Issued by NWS

Home | Current Version | Previous Version | Text Only | Print | Product List | Glossary On
Versions: 1 2 3 4 5 6 7 8 9 10 11 12 13 14 15 16 17 18 19 20 21
000
FTUS42 TJSJ 312300
TAFISX
TAF
TISX 312328Z 0100/0124 12008KT P6SM FEW025 SCT040
     FM010330 10004KT P6SM VCSH SCT025
     FM011400 13011KT P6SM FEW030 SCT060
      AMD NOT SKED=

USA.gov is the U.S. government's official web portal to all federal, state and local government web resources and services.